Time;durP1;ratioP1;P1;durP2;ratioP2;P2;SDS_P1;SDS_P2;PMS_P1;PMS_P2;Temp;Humidity;BMP_temperature;BMP_pressure;BME280_temperature;BME280_humidity;BME280_pressure;Samples;Min_cycle;Max_cycle;Signal;HPM_P1;HPM_P2
2022/10/03 00:01:04;;;;;;;;;;;18.00;61.40;;;;;;5013819;28;20008;-73
2022/10/03 00:03:33;;;;;;;;;;;17.90;61.40;;;;;;5028404;28;20389;-72
2022/10/03 00:06:01;;;;;;;;;;;18.00;61.40;;;;;;5013747;28;19922;-73
2022/10/03 00:08:27;;;;;;;;;;;18.00;61.30;;;;;;5013803;28;19916;-72
2022/10/03 00:11:11;;;;;;;;;;;18.00;61.40;;;;;;5013716;28;19910;-73
2022/10/03 00:13:49;;;;;;;;;;;18.00;61.30;;;;;;5023858;28;20392;-73
2022/10/03 00:16:22;;;;;;;;;;;17.90;61.40;;;;;;5012078;28;20285;-72
2022/10/03 00:18:54;;;;;;;;;;;17.90;61.40;;;;;;5012532;28;20296;-73
2022/10/03 00:21:37;;;;;;;;;;;17.90;61.40;;;;;;5013626;28;19964;-72
2022/10/03 00:24:21;;;;;;;;;;;17.90;62.20;;;;;;5013289;28;20312;-73
2022/10/03 00:27:05;;;;;;;;;;;17.90;61.50;;;;;;5013569;28;19909;-73
2022/10/03 00:29:30;;;;;;;;;;;17.90;61.50;;;;;;5013558;28;19964;-72
2022/10/03 00:31:59;;;;;;;;;;;17.90;61.50;;;;;;5012935;28;19956;-73
2022/10/03 00:34:38;;;;;;;;;;;17.90;61.50;;;;;;5013806;28;19916;-72
2022/10/03 00:37:34;;;;;;;;;;;17.90;61.30;;;;;;5013259;28;20428;-72
2022/10/03 00:40:06;;;;;;;;;;;17.90;61.30;;;;;;4960633;28;19942;-73
2022/10/03 00:42:51;;;;;;;;;;;17.90;61.20;;;;;;4995509;28;19913;-73
2022/10/03 00:45:19;;;;;;;;;;;18.00;61.10;;;;;;5013347;28;19910;-73
2022/10/03 00:47:54;;;;;;;;;;;18.00;61.10;;;;;;5012814;28;19909;-72
2022/10/03 00:50:38;;;;;;;;;;;18.00;61.20;;;;;;4995664;28;19909;-72
2022/10/03 00:53:03;;;;;;;;;;;18.00;61.10;;;;;;5013076;28;20378;-72
2022/10/03 00:55:45;;;;;;;;;;;18.00;61.10;;;;;;5013187;28;20013;-73
2022/10/03 00:58:11;;;;;;;;;;;18.00;61.10;;;;;;4995625;28;19921;-73
2022/10/03 01:00:37;;;;;;;;;;;18.00;61.10;;;;;;5013408;28;19909;-72
2022/10/03 01:03:05;;;;;;;;;;;18.00;61.10;;;;;;5012559;28;19920;-73
2022/10/03 01:05:33;;;;;;;;;;;18.00;60.90;;;;;;5012982;28;19964;-72
2022/10/03 01:08:16;;;;;;;;;;;18.00;60.90;;;;;;5012844;28;20480;-72
2022/10/03 01:10:44;;;;;;;;;;;18.00;60.80;;;;;;5028110;28;19913;-73
2022/10/03 01:13:20;;;;;;;;;;;18.00;60.90;;;;;;5028142;28;19921;-73
2022/10/03 01:15:49;;;;;;;;;;;17.90;61.00;;;;;;5027444;28;20043;-73
2022/10/03 01:18:30;;;;;;;;;;;17.90;61.20;;;;;;5012930;28;19914;-72
2022/10/03 01:21:06;;;;;;;;;;;17.90;61.20;;;;;;5012833;28;19913;-73
2022/10/03 01:23:51;;;;;;;;;;;17.90;61.00;;;;;;5027851;28;19999;-72
2022/10/03 01:26:37;;;;;;;;;;;17.90;61.10;;;;;;5027818;28;20328;-72
2022/10/03 01:32:00;;;;;;;;;;;18.00;60.70;;;;;;5025024;28;20420;-73
2022/10/03 01:34:28;;;;;;;;;;;18.10;60.70;;;;;;5012934;28;19936;-73
2022/10/03 01:37:01;;;;;;;;;;;18.10;60.60;;;;;;5012689;28;20348;-73
2022/10/03 01:39:40;;;;;;;;;;;18.10;60.50;;;;;;4999348;28;19910;-72
2022/10/03 01:42:11;;;;;;;;;;;18.10;60.50;;;;;;5012480;28;19963;-73
2022/10/03 01:44:39;;;;;;;;;;;18.10;60.60;;;;;;4978808;28;19917;-73
2022/10/03 01:47:05;;;;;;;;;;;18.10;60.60;;;;;;4994540;28;19909;-73
2022/10/03 01:49:33;;;;;;;;;;;18.10;60.60;;;;;;5011278;28;19932;-73
2022/10/03 01:52:07;;;;;;;;;;;18.10;60.60;;;;;;4994840;28;19919;-73
2022/10/03 01:54:49;;;;;;;;;;;18.10;60.50;;;;;;5011231;28;19917;-72
2022/10/03 01:57:17;;;;;;;;;;;18.10;60.50;;;;;;5011485;28;20362;-72
2022/10/03 01:59:46;;;;;;;;;;;18.10;60.60;;;;;;5012475;28;20012;-73
2022/10/03 02:02:19;;;;;;;;;;;18.10;60.50;;;;;;5011888;28;19916;-71
2022/10/03 02:04:50;;;;;;;;;;;18.10;60.50;;;;;;4994774;28;19916;-73
2022/10/03 02:07:39;;;;;;;;;;;18.10;60.40;;;;;;5010997;28;19932;-72
2022/10/03 02:10:07;;;;;;;;;;;18.10;60.40;;;;;;5017680;28;19980;-73
2022/10/03 02:12:40;;;;;;;;;;;18.10;60.50;;;;;;4994475;28;20212;-73
2022/10/03 02:15:18;;;;;;;;;;;18.10;60.50;;;;;;5011164;28;19988;-72
2022/10/03 02:17:46;;;;;;;;;;;18.10;60.40;;;;;;5010523;28;19909;-72
2022/10/03 02:20:13;;;;;;;;;;;18.20;60.40;;;;;;5011018;28;20369;-73
2022/10/03 02:22:38;;;;;;;;;;;18.20;60.20;;;;;;4994319;28;19963;-73
2022/10/03 02:25:20;;;;;;;;;;;18.20;60.10;;;;;;5012828;28;19914;-73
2022/10/03 02:27:49;;;;;;;;;;;18.20;60.10;;;;;;5014462;28;19917;-73
2022/10/03 02:30:17;;;;;;;;;;;18.20;60.10;;;;;;5014530;28;20266;-72
2022/10/03 02:32:45;;;;;;;;;;;18.10;60.20;;;;;;5015243;28;19913;-72
2022/10/03 02:35:20;;;;;;;;;;;18.20;60.20;;;;;;5015896;28;19910;-72
2022/10/03 02:37:46;;;;;;;;;;;18.20;60.20;;;;;;5013998;28;20000;-72
2022/10/03 02:40:30;;;;;;;;;;;18.20;60.10;;;;;;5015473;28;20040;-73
2022/10/03 02:43:17;;;;;;;;;;;18.20;60.00;;;;;;5015641;28;19921;-72
2022/10/03 02:45:46;;;;;;;;;;;18.20;60.10;;;;;;5013930;28;19921;-72
2022/10/03 02:48:16;;;;;;;;;;;18.20;60.10;;;;;;5014447;28;19910;-73
2022/10/03 02:50:57;;;;;;;;;;;18.20;60.00;;;;;;5020778;28;19913;-72
2022/10/03 02:53:41;;;;;;;;;;;18.20;60.00;;;;;;5015222;28;19952;-72
2022/10/03 02:56:14;;;;;;;;;;;18.20;60.00;;;;;;5015111;28;19945;-72
2022/10/03 02:58:46;;;;;;;;;;;18.20;60.00;;;;;;5013984;28;20004;-73
2022/10/03 03:01:14;;;;;;;;;;;18.20;60.00;;;;;;5013369;28;19909;-73
2022/10/03 03:03:58;;;;;;;;;;;18.20;60.00;;;;;;5014956;28;19979;-73
2022/10/03 03:06:36;;;;;;;;;;;18.20;60.00;;;;;;5010067;28;19968;-72
2022/10/03 03:09:22;;;;;;;;;;;18.20;60.00;;;;;;4995376;28;19921;-72
2022/10/03 03:11:47;;;;;;;;;;;18.10;60.10;;;;;;4995393;28;19910;-73
2022/10/03 03:14:31;;;;;;;;;;;18.10;60.10;;;;;;4995310;28;20024;-72
2022/10/03 03:17:05;;;;;;;;;;;18.10;60.00;;;;;;4994939;28;19945;-72
2022/10/03 03:19:31;;;;;;;;;;;18.20;60.00;;;;;;5010348;28;20357;-73
2022/10/03 03:22:11;;;;;;;;;;;18.10;60.00;;;;;;4995150;28;19917;-72
2022/10/03 03:24:52;;;;;;;;;;;18.10;60.00;;;;;;4995072;28;19914;-72
2022/10/03 03:27:39;;;;;;;;;;;18.10;60.00;;;;;;4995122;28;20362;-72
2022/10/03 03:30:04;;;;;;;;;;;18.10;60.00;;;;;;5010196;28;19953;-71
2022/10/03 03:32:52;;;;;;;;;;;18.10;60.00;;;;;;4994455;28;20007;-73
2022/10/03 03:35:26;;;;;;;;;;;18.10;60.00;;;;;;5010066;28;20008;-73
2022/10/03 03:38:13;;;;;;;;;;;18.10;60.00;;;;;;4993809;28;19964;-73
2022/10/03 03:40:43;;;;;;;;;;;18.10;59.90;;;;;;5009821;28;19993;-73
2022/10/03 03:43:28;;;;;;;;;;;18.10;59.90;;;;;;4995027;28;20013;-72
2022/10/03 03:46:03;;;;;;;;;;;18.10;59.90;;;;;;4994249;28;19917;-73
2022/10/03 03:48:47;;;;;;;;;;;18.20;59.90;;;;;;4994592;28;19910;-73
2022/10/03 03:51:21;;;;;;;;;;;18.10;59.80;;;;;;4994573;28;19917;-72
2022/10/03 03:54:02;;;;;;;;;;;18.20;59.90;;;;;;5009646;28;19917;-72
2022/10/03 03:56:27;;;;;;;;;;;18.10;59.90;;;;;;4993038;28;19910;-73
2022/10/03 03:59:01;;;;;;;;;;;18.10;59.90;;;;;;4994605;28;19933;-72
2022/10/03 04:01:45;;;;;;;;;;;18.10;59.90;;;;;;5009015;28;19914;-73
2022/10/03 04:04:14;;;;;;;;;;;18.20;60.00;;;;;;4994217;28;19914;-73
2022/10/03 04:06:45;;;;;;;;;;;18.20;59.90;;;;;;5021741;28;20016;-72
2022/10/03 04:09:19;;;;;;;;;;;18.10;59.80;;;;;;5013883;28;19920;-72
2022/10/03 04:11:50;;;;;;;;;;;18.20;59.80;;;;;;5028974;28;19921;-72
2022/10/03 04:14:20;;;;;;;;;;;18.20;59.70;;;;;;5013722;28;19913;-71
2022/10/03 04:19:42;;;;;;;;;;;18.20;59.60;;;;;;5026780;28;19917;-72
2022/10/03 04:22:10;;;;;;;;;;;18.20;59.60;;;;;;5013595;28;19910;-73
2022/10/03 04:24:45;;;;;;;;;;;18.20;59.60;;;;;;5013686;28;19913;-72
2022/10/03 04:27:10;;;;;;;;;;;18.20;59.60;;;;;;5012410;28;19972;-72
2022/10/03 04:29:45;;;;;;;;;;;18.20;59.70;;;;;;5013510;28;20003;-72
2022/10/03 04:32:17;;;;;;;;;;;18.20;59.70;;;;;;5013045;28;20000;-73
2022/10/03 04:34:45;;;;;;;;;;;18.20;59.60;;;;;;5013461;28;19909;-73
2022/10/03 04:37:11;;;;;;;;;;;18.20;59.60;;;;;;5013350;28;19917;-73
2022/10/03 04:39:41;;;;;;;;;;;18.20;59.60;;;;;;5013283;28;19913;-72
2022/10/03 04:42:09;;;;;;;;;;;18.20;59.70;;;;;;5013277;28;19913;-73
2022/10/03 04:44:37;;;;;;;;;;;18.10;59.60;;;;;;5013558;28;19963;-73
2022/10/03 04:47:07;;;;;;;;;;;18.10;59.60;;;;;;5012657;28;20005;-72
2022/10/03 04:49:52;;;;;;;;;;;18.10;59.70;;;;;;5028153;28;20382;-72
2022/10/03 04:52:20;;;;;;;;;;;18.10;59.70;;;;;;5013106;28;19910;-72
2022/10/03 04:54:53;;;;;;;;;;;18.10;59.80;;;;;;5028378;28;19913;-71
2022/10/03 04:57:37;;;;;;;;;;;18.10;59.80;;;;;;5028209;28;19910;-73
2022/10/03 05:00:22;;;;;;;;;;;18.10;59.80;;;;;;5013182;28;19921;-72
2022/10/03 05:03:00;;;;;;;;;;;18.00;59.80;;;;;;5012673;28;19920;-73
2022/10/03 05:05:46;;;;;;;;;;;18.10;60.60;;;;;;5028035;28;19968;-73
2022/10/03 05:08:27;;;;;;;;;;;18.10;59.80;;;;;;5012954;28;19914;-72
2022/10/03 05:11:02;;;;;;;;;;;18.10;59.70;;;;;;5028006;28;20193;-71
2022/10/03 05:13:38;;;;;;;;;;;18.10;59.80;;;;;;5023254;28;20457;-72
2022/10/03 05:16:07;;;;;;;;;;;18.10;59.70;;;;;;5011319;28;19910;-72
2022/10/03 05:18:39;;;;;;;;;;;18.10;59.60;;;;;;5011652;28;19916;-72
2022/10/03 05:21:20;;;;;;;;;;;18.10;59.60;;;;;;5011723;28;19913;-72
2022/10/03 05:23:51;;;;;;;;;;;18.10;59.60;;;;;;5012772;28;20316;-73
2022/10/03 05:26:29;;;;;;;;;;;18.10;59.60;;;;;;5011376;28;20008;-72
2022/10/03 05:29:02;;;;;;;;;;;18.10;59.60;;;;;;5011763;28;19910;-73
2022/10/03 05:31:32;;;;;;;;;;;18.00;59.60;;;;;;5012250;28;19909;-71
2022/10/03 05:33:59;;;;;;;;;;;18.00;59.70;;;;;;5011523;28;19910;-73
2022/10/03 05:36:26;;;;;;;;;;;18.00;59.70;;;;;;5012721;28;20031;-72
2022/10/03 05:39:11;;;;;;;;;;;18.00;59.70;;;;;;5011470;28;19910;-73
2022/10/03 05:41:36;;;;;;;;;;;18.00;59.70;;;;;;5012625;28;20308;-72
2022/10/03 05:44:23;;;;;;;;;;;18.00;59.70;;;;;;5011401;28;19921;-72
2022/10/03 05:46:52;;;;;;;;;;;18.00;59.70;;;;;;5010968;28;19910;-72
2022/10/03 05:49:38;;;;;;;;;;;18.00;59.70;;;;;;5011455;28;19909;-72
2022/10/03 05:52:07;;;;;;;;;;;18.10;59.70;;;;;;5012428;28;20366;-72
2022/10/03 05:54:44;;;;;;;;;;;18.10;59.60;;;;;;5012419;28;19910;-72
2022/10/03 05:57:29;;;;;;;;;;;18.10;59.60;;;;;;5011154;28;19913;-73
2022/10/03 05:59:58;;;;;;;;;;;18.10;59.50;;;;;;5012923;28;20621;-73
2022/10/03 06:02:36;;;;;;;;;;;18.10;59.50;;;;;;5014176;28;20003;-72
2022/10/03 06:05:14;;;;;;;;;;;18.10;59.40;;;;;;5016169;28;19913;-72
2022/10/03 06:07:44;;;;;;;;;;;18.10;59.40;;;;;;4998407;28;20389;-73
2022/10/03 06:10:30;;;;;;;;;;;18.10;59.50;;;;;;5031288;28;19963;-73
2022/10/03 06:13:10;;;;;;;;;;;18.10;59.50;;;;;;5031073;28;19914;-72
2022/10/03 06:15:53;;;;;;;;;;;18.10;59.60;;;;;;5016081;28;20320;-73
2022/10/03 06:18:37;;;;;;;;;;;18.10;59.50;;;;;;5016110;28;19910;-73
2022/10/03 06:21:11;;;;;;;;;;;18.10;59.50;;;;;;5015893;28;19913;-73
2022/10/03 06:23:47;;;;;;;;;;;18.10;59.40;;;;;;5015851;28;19968;-73
2022/10/03 06:26:23;;;;;;;;;;;18.10;59.40;;;;;;5030939;28;19914;-73
2022/10/03 06:29:07;;;;;;;;;;;18.10;59.50;;;;;;5037895;28;19916;-73
2022/10/03 06:31:41;;;;;;;;;;;18.10;59.40;;;;;;5015219;28;20003;-72
2022/10/03 06:34:25;;;;;;;;;;;18.10;59.40;;;;;;5015874;28;19913;-71
2022/10/03 06:36:57;;;;;;;;;;;18.10;59.40;;;;;;5015476;28;19960;-72
2022/10/03 06:39:22;;;;;;;;;;;18.10;59.40;;;;;;5030369;28;19960;-73
2022/10/03 06:41:48;;;;;;;;;;;18.10;59.50;;;;;;5015468;28;19922;-72
2022/10/03 06:44:32;;;;;;;;;;;18.10;59.50;;;;;;5015482;28;19959;-71
2022/10/03 06:47:27;;;;;;;;;;;18.10;59.40;;;;;;5014986;28;19910;-73
2022/10/03 06:50:04;;;;;;;;;;;18.10;59.40;;;;;;5001601;28;19916;-73
2022/10/03 06:52:35;;;;;;;;;;;18.10;59.40;;;;;;5025774;28;19914;-73
2022/10/03 06:55:10;;;;;;;;;;;18.10;59.40;;;;;;5014218;28;19917;-73
2022/10/03 06:57:54;;;;;;;;;;;18.10;59.40;;;;;;5015027;28;19910;-72
2022/10/03 07:00:20;;;;;;;;;;;18.10;59.40;;;;;;5015203;28;19917;-72
2022/10/03 07:02:45;;;;;;;;;;;18.10;59.50;;;;;;5014307;28;20415;-73
2022/10/03 07:05:14;;;;;;;;;;;18.10;59.40;;;;;;5014835;28;20020;-73
2022/10/03 07:07:52;;;;;;;;;;;18.10;59.40;;;;;;5014907;28;20488;-72
2022/10/03 07:10:34;;;;;;;;;;;18.10;59.40;;;;;;5014950;28;19910;-72
2022/10/03 07:13:10;;;;;;;;;;;18.10;59.50;;;;;;5029975;28;19910;-73
2022/10/03 07:15:36;;;;;;;;;;;18.10;59.50;;;;;;5030162;28;19963;-72
2022/10/03 07:18:07;;;;;;;;;;;18.10;59.50;;;;;;5014601;28;19909;-73
2022/10/03 07:20:51;;;;;;;;;;;18.10;59.40;;;;;;5030004;28;19916;-71
2022/10/03 07:23:46;;;;;;;;;;;18.00;59.40;;;;;;5014690;28;20292;-72
2022/10/03 07:26:26;;;;;;;;;;;18.10;59.60;;;;;;4961239;28;19914;-73
2022/10/03 07:29:06;;;;;;;;;;;18.00;59.50;;;;;;5030156;28;19948;-72
2022/10/03 07:31:44;;;;;;;;;;;18.00;59.50;;;;;;5014139;28;19910;-71
2022/10/03 07:34:12;;;;;;;;;;;18.00;59.50;;;;;;5029910;28;19910;-72
2022/10/03 07:39:50;;;;;;;;;;;18.00;59.60;;;;;;5027499;28;19916;-72
2022/10/03 07:42:34;;;;;;;;;;;18.00;59.60;;;;;;5014111;28;19909;-73
2022/10/03 07:45:18;;;;;;;;;;;18.00;59.50;;;;;;5014400;28;19945;-72
2022/10/03 07:48:02;;;;;;;;;;;18.00;59.50;;;;;;5013691;28;20008;-73
2022/10/03 07:50:38;;;;;;;;;;;18.00;59.50;;;;;;5014366;28;19910;-71
2022/10/03 07:53:13;;;;;;;;;;;18.10;59.60;;;;;;5019463;28;19916;-73
2022/10/03 07:55:41;;;;;;;;;;;18.10;59.50;;;;;;5014162;28;20312;-73
2022/10/03 07:58:25;;;;;;;;;;;18.10;59.60;;;;;;5013018;28;19918;-72
2022/10/03 08:00:54;;;;;;;;;;;18.10;59.50;;;;;;5012192;28;19910;-73
2022/10/03 08:03:37;;;;;;;;;;;18.10;59.60;;;;;;5014278;28;19924;-72
2022/10/03 08:06:14;;;;;;;;;;;18.10;59.60;;;;;;5012481;28;19921;-72
2022/10/03 08:08:49;;;;;;;;;;;18.10;59.60;;;;;;5014007;28;20370;-73
2022/10/03 08:11:26;;;;;;;;;;;18.10;59.60;;;;;;5013765;28;20016;-73
2022/10/03 08:14:00;;;;;;;;;;;18.10;59.70;;;;;;5013851;28;20328;-73
2022/10/03 08:16:36;;;;;;;;;;;18.00;60.00;;;;;;5028270;28;19964;-72
2022/10/03 08:19:11;;;;;;;;;;;18.00;59.60;;;;;;5029043;28;19955;-72
2022/10/03 08:21:37;;;;;;;;;;;18.00;59.60;;;;;;5028794;28;19913;-73
2022/10/03 08:24:12;;;;;;;;;;;18.00;59.70;;;;;;5013106;28;19913;-73
2022/10/03 08:26:40;;;;;;;;;;;18.00;59.80;;;;;;5013617;28;20377;-72
2022/10/03 08:29:15;;;;;;;;;;;18.00;59.80;;;;;;5013494;28;19910;-73
2022/10/03 08:31:40;;;;;;;;;;;18.00;59.80;;;;;;5012811;28;19913;-73
2022/10/03 08:34:25;;;;;;;;;;;18.00;59.80;;;;;;5013568;28;20031;-73
2022/10/03 08:36:54;;;;;;;;;;;18.10;59.90;;;;;;5012118;28;19910;-72
2022/10/03 08:39:32;;;;;;;;;;;18.10;59.80;;;;;;5013494;28;20362;-72
2022/10/03 08:42:30;;;;;;;;;;;18.10;59.70;;;;;;5028565;28;20337;-72
2022/10/03 08:45:01;;;;;;;;;;;18.10;59.60;;;;;;4980178;28;20284;-72
2022/10/03 08:47:29;;;;;;;;;;;18.20;59.70;;;;;;5012704;28;20304;-73
2022/10/03 08:50:13;;;;;;;;;;;18.20;59.70;;;;;;5013198;28;19913;-72
2022/10/03 08:52:42;;;;;;;;;;;18.10;59.60;;;;;;5013077;28;19964;-73
2022/10/03 08:55:26;;;;;;;;;;;18.20;59.70;;;;;;5013337;28;19910;-72
2022/10/03 08:57:59;;;;;;;;;;;18.10;59.80;;;;;;5028158;28;19956;-72
2022/10/03 09:00:39;;;;;;;;;;;18.10;59.70;;;;;;5028392;28;20285;-73
2022/10/03 09:03:18;;;;;;;;;;;18.10;59.80;;;;;;5012522;28;20075;-71
2022/10/03 09:05:49;;;;;;;;;;;18.10;59.90;;;;;;5027933;28;19918;-73
2022/10/03 09:08:33;;;;;;;;;;;18.10;59.90;;;;;;5012834;28;19940;-73
2022/10/03 09:11:17;;;;;;;;;;;18.10;59.80;;;;;;5012821;28;20361;-73
2022/10/03 09:13:46;;;;;;;;;;;18.20;59.90;;;;;;5013141;28;19909;-72
2022/10/03 09:16:11;;;;;;;;;;;18.20;59.90;;;;;;5012422;28;19909;-73
2022/10/03 09:18:50;;;;;;;;;;;18.20;59.80;;;;;;5012820;28;19913;-72
2022/10/03 09:21:34;;;;;;;;;;;18.10;59.80;;;;;;5012910;28;19913;-73
2022/10/03 09:24:03;;;;;;;;;;;18.20;59.90;;;;;;4993510;28;19945;-72
2022/10/03 09:26:50;;;;;;;;;;;18.20;60.00;;;;;;4993104;28;19917;-72
2022/10/03 09:29:25;;;;;;;;;;;18.20;60.00;;;;;;4998520;28;20370;-73
2022/10/03 09:32:02;;;;;;;;;;;18.20;60.00;;;;;;4992746;28;19914;-73
2022/10/03 09:34:47;;;;;;;;;;;18.20;60.00;;;;;;4993547;28;20357;-72
2022/10/03 09:37:28;;;;;;;;;;;18.20;59.90;;;;;;4997139;28;19917;-72
2022/10/03 09:40:05;;;;;;;;;;;18.20;60.00;;;;;;5014735;28;19952;-71
2022/10/03 09:42:43;;;;;;;;;;;18.20;59.90;;;;;;5021918;28;19971;-73
2022/10/03 09:45:20;;;;;;;;;;;18.20;60.00;;;;;;5015369;28;19910;-73
2022/10/03 09:48:04;;;;;;;;;;;18.20;59.90;;;;;;5021405;28;19924;-72
2022/10/03 09:50:35;;;;;;;;;;;18.20;60.00;;;;;;5016686;28;19913;-73
2022/10/03 09:53:06;;;;;;;;;;;18.30;59.90;;;;;;5016351;28;19916;-72
2022/10/03 09:55:50;;;;;;;;;;;18.20;59.90;;;;;;5016337;28;19917;-72
2022/10/03 09:58:26;;;;;;;;;;;18.20;60.00;;;;;;5016397;28;19963;-72
2022/10/03 10:00:55;;;;;;;;;;;18.30;60.90;;;;;;5014645;28;19945;-72
2022/10/03 10:03:39;;;;;;;;;;;18.30;60.00;;;;;;5016069;28;20012;-72
2022/10/03 10:06:10;;;;;;;;;;;18.30;60.00;;;;;;5016110;28;20520;-73
2022/10/03 10:08:38;;;;;;;;;;;18.30;59.90;;;;;;5014843;28;19921;-72
2022/10/03 10:11:13;;;;;;;;;;;18.30;59.90;;;;;;5014757;28;19909;-72
2022/10/03 10:13:38;;;;;;;;;;;18.30;59.80;;;;;;5015890;28;20424;-72
2022/10/03 10:16:16;;;;;;;;;;;18.40;59.90;;;;;;5015459;28;20005;-72
2022/10/03 10:18:48;;;;;;;;;;;18.40;59.80;;;;;;5014706;28;19910;-72
2022/10/03 10:21:40;;;;;;;;;;;18.40;59.80;;;;;;5015909;28;19909;-72
2022/10/03 10:24:24;;;;;;;;;;;18.30;59.90;;;;;;4992038;28;19964;-73
2022/10/03 10:26:56;;;;;;;;;;;18.40;60.00;;;;;;5015783;28;20303;-72
2022/10/03 10:29:21;;;;;;;;;;;18.40;60.00;;;;;;5014548;28;20262;-73
2022/10/03 10:31:46;;;;;;;;;;;18.40;60.00;;;;;;5015149;28;19913;-73
2022/10/03 10:34:12;;;;;;;;;;;18.40;59.90;;;;;;5014364;28;19909;-72
2022/10/03 10:36:37;;;;;;;;;;;18.40;59.90;;;;;;5015459;28;20004;-72
2022/10/03 10:39:20;;;;;;;;;;;18.30;60.00;;;;;;5015579;28;19956;-72
2022/10/03 10:41:55;;;;;;;;;;;18.40;60.10;;;;;;5015492;28;19920;-73
2022/10/03 10:44:26;;;;;;;;;;;18.40;60.00;;;;;;5030860;28;19947;-71
2022/10/03 10:47:01;;;;;;;;;;;18.40;60.10;;;;;;5014377;28;19936;-73
2022/10/03 10:49:45;;;;;;;;;;;18.30;60.30;;;;;;5015330;28;19909;-72
2022/10/03 10:52:23;;;;;;;;;;;18.30;60.60;;;;;;5030212;28;19913;-73
2022/10/03 10:55:07;;;;;;;;;;;18.30;60.50;;;;;;5015320;28;19932;-73
2022/10/03 10:57:44;;;;;;;;;;;18.30;60.50;;;;;;5030225;28;19945;-73
2022/10/03 11:00:14;;;;;;;;;;;18.30;60.50;;;;;;5037002;28;19916;-73
2022/10/03 11:02:45;;;;;;;;;;;18.30;60.70;;;;;;5014379;28;19910;-73
2022/10/03 11:05:22;;;;;;;;;;;18.20;60.70;;;;;;5014996;28;19926;-72
2022/10/03 11:07:57;;;;;;;;;;;18.20;60.80;;;;;;5013698;28;19910;-72
2022/10/03 11:10:32;;;;;;;;;;;18.20;61.10;;;;;;5015122;28;19909;-73
2022/10/03 11:13:07;;;;;;;;;;;18.20;60.90;;;;;;5030315;28;19925;-73
2022/10/03 11:15:48;;;;;;;;;;;18.20;60.90;;;;;;5029958;28;19917;-73
2022/10/03 11:18:32;;;;;;;;;;;18.20;61.00;;;;;;5014980;28;19910;-72
2022/10/03 11:21:12;;;;;;;;;;;18.20;60.90;;;;;;5014707;28;19918;-72
2022/10/03 11:23:58;;;;;;;;;;;18.20;60.90;;;;;;5029991;28;19917;-73
2022/10/03 11:26:41;;;;;;;;;;;18.20;60.90;;;;;;4983334;28;19917;-72
2022/10/03 11:29:25;;;;;;;;;;;18.20;61.00;;;;;;5014646;28;19913;-71
2022/10/03 11:32:09;;;;;;;;;;;18.30;60.90;;;;;;5014109;28;20043;-71
2022/10/03 11:34:50;;;;;;;;;;;18.30;60.90;;;;;;5029698;28;20135;-72
2022/10/03 11:37:15;;;;;;;;;;;18.30;60.80;;;;;;5014345;28;20004;-72
2022/10/03 11:39:44;;;;;;;;;;;18.30;60.90;;;;;;5014397;28;19952;-72
2022/10/03 11:42:09;;;;;;;;;;;18.30;61.20;;;;;;5014232;28;19909;-73
2022/10/03 11:44:45;;;;;;;;;;;18.20;61.20;;;;;;5014531;28;20297;-72
2022/10/03 11:47:14;;;;;;;;;;;18.20;61.40;;;;;;5029204;28;19910;-73
2022/10/03 11:49:39;;;;;;;;;;;18.20;61.40;;;;;;5014244;28;19921;-72
2022/10/03 11:52:43;;;;;;;;;;;18.30;62.20;;;;;;5014082;28;19914;-72
2022/10/03 11:55:27;;;;;;;;;;;18.30;61.20;;;;;;4953516;29;20398;-72
2022/10/03 11:58:02;;;;;;;;;;;18.30;61.10;;;;;;4952640;28;20330;-73
2022/10/03 12:00:28;;;;;;;;;;;18.30;61.00;;;;;;4992507;28;19916;-72
2022/10/03 12:03:12;;;;;;;;;;;18.40;61.10;;;;;;5012344;28;19913;-72
2022/10/03 12:05:45;;;;;;;;;;;18.50;61.10;;;;;;5013843;28;19921;-73
2022/10/03 12:11:13;;;;;;;;;;;18.50;61.10;;;;;;5026962;28;19916;-72
2022/10/03 12:13:57;;;;;;;;;;;18.50;61.20;;;;;;5013920;28;19963;-72
2022/10/03 12:16:26;;;;;;;;;;;18.40;61.10;;;;;;5013326;28;19909;-71
2022/10/03 12:19:09;;;;;;;;;;;18.40;61.30;;;;;;5110101;22;20617;-63
2022/10/03 12:21:38;;;;;;;;;;;18.30;61.40;;;;;;5109407;28;20283;-64
2022/10/03 12:24:12;;;;;;;;;;;18.30;61.50;;;;;;5110353;28;19908;-64
2022/10/03 12:26:48;;;;;;;;;;;18.40;61.50;;;;;;5110226;28;19932;-63
2022/10/03 12:29:15;;;;;;;;;;;18.40;61.40;;;;;;5092197;28;19908;-63
2022/10/03 12:31:56;;;;;;;;;;;18.50;61.40;;;;;;5108497;28;19924;-63
2022/10/03 12:34:40;;;;;;;;;;;18.40;61.30;;;;;;5110255;28;19995;-63
2022/10/03 12:37:24;;;;;;;;;;;18.50;61.40;;;;;;5109947;28;20443;-63
2022/10/03 12:39:53;;;;;;;;;;;18.50;61.30;;;;;;5109949;28;19908;-63
2022/10/03 12:42:25;;;;;;;;;;;18.50;61.30;;;;;;5108762;28;19915;-63
2022/10/03 12:44:51;;;;;;;;;;;18.40;61.30;;;;;;5091881;28;20394;-63
2022/10/03 12:47:24;;;;;;;;;;;18.40;61.50;;;;;;5109696;28;19951;-63
2022/10/03 12:49:56;;;;;;;;;;;18.40;61.40;;;;;;5108820;28;19914;-63
2022/10/03 12:52:26;;;;;;;;;;;18.40;61.50;;;;;;5108492;28;19961;-63
2022/10/03 12:55:15;;;;;;;;;;;18.40;61.50;;;;;;5108577;28;19908;-63
2022/10/03 12:58:10;;;;;;;;;;;18.50;61.70;;;;;;5109451;28;19912;-63
2022/10/03 13:00:42;;;;;;;;;;;18.50;61.70;;;;;;5091731;28;20050;-63
2022/10/03 13:03:16;;;;;;;;;;;18.50;61.50;;;;;;5109618;28;19908;-64
2022/10/03 13:06:08;;;;;;;;;;;18.50;61.50;;;;;;5108069;28;19911;-63
2022/10/03 13:08:37;;;;;;;;;;;18.50;61.60;;;;;;5105368;28;20404;-63
2022/10/03 13:11:08;;;;;;;;;;;18.40;61.70;;;;;;5108080;28;19908;-63
2022/10/03 13:13:43;;;;;;;;;;;18.40;61.80;;;;;;5091087;28;20388;-63
2022/10/03 13:16:20;;;;;;;;;;;18.40;61.80;;;;;;5114518;28;19931;-63
2022/10/03 13:18:50;;;;;;;;;;;18.40;61.90;;;;;;5090834;28;20363;-63
2022/10/03 13:21:16;;;;;;;;;;;18.50;61.90;;;;;;5109209;28;19908;-63
2022/10/03 13:23:47;;;;;;;;;;;18.50;61.90;;;;;;5109236;28;19915;-63
2022/10/03 13:26:24;;;;;;;;;;;18.50;61.90;;;;;;5109170;28;19991;-63
2022/10/03 13:29:12;;;;;;;;;;;18.40;61.90;;;;;;5103946;28;20288;-63
2022/10/03 13:31:54;;;;;;;;;;;18.40;61.90;;;;;;5101692;28;19918;-63
2022/10/03 13:34:22;;;;;;;;;;;18.40;61.90;;;;;;5094268;28;20375;-63
2022/10/03 13:36:54;;;;;;;;;;;18.40;61.90;;;;;;5095197;28;20337;-63
2022/10/03 13:39:24;;;;;;;;;;;18.40;62.10;;;;;;5095158;28;20382;-63
2022/10/03 13:42:10;;;;;;;;;;;18.40;62.30;;;;;;5093871;28;19912;-63
2022/10/03 13:44:43;;;;;;;;;;;18.30;62.30;;;;;;5094447;28;20043;-63
2022/10/03 13:47:40;;;;;;;;;;;18.40;62.40;;;;;;5093661;28;19908;-63
2022/10/03 13:50:09;;;;;;;;;;;18.30;62.30;;;;;;5093895;28;19994;-64
2022/10/03 13:52:37;;;;;;;;;;;18.40;62.40;;;;;;5093792;28;20403;-64
2022/10/03 13:55:08;;;;;;;;;;;18.40;62.40;;;;;;5093957;28;19930;-64
2022/10/03 13:57:44;;;;;;;;;;;18.40;62.30;;;;;;5094720;28;19950;-63
2022/10/03 14:00:15;;;;;;;;;;;18.40;62.40;;;;;;5095007;28;20283;-63
2022/10/03 14:02:50;;;;;;;;;;;18.40;62.40;;;;;;5076305;28;19908;-63
2022/10/03 14:05:36;;;;;;;;;;;18.50;62.40;;;;;;5094786;28;19915;-63
2022/10/03 14:08:20;;;;;;;;;;;18.40;62.30;;;;;;5094300;28;19999;-63
2022/10/03 14:10:57;;;;;;;;;;;18.50;62.10;;;;;;5094709;28;19912;-63
2022/10/03 14:13:42;;;;;;;;;;;18.60;62.00;;;;;;5101544;28;19947;-63
2022/10/03 14:16:10;;;;;;;;;;;18.60;62.00;;;;;;5094222;28;20012;-63
2022/10/03 14:18:43;;;;;;;;;;;18.60;61.90;;;;;;5094220;28;19955;-63
2022/10/03 14:21:23;;;;;;;;;;;18.60;61.90;;;;;;5076351;28;19916;-63
2022/10/03 14:23:50;;;;;;;;;;;18.60;61.80;;;;;;5093480;28;19913;-63
2022/10/03 14:26:20;;;;;;;;;;;18.60;61.80;;;;;;5094406;28;19916;-63
2022/10/03 14:28:50;;;;;;;;;;;18.70;62.00;;;;;;5094891;28;19919;-63
2022/10/03 14:31:34;;;;;;;;;;;18.70;61.80;;;;;;5093860;28;19908;-63
2022/10/03 14:34:18;;;;;;;;;;;18.70;61.60;;;;;;5093000;28;19943;-63
2022/10/03 14:36:54;;;;;;;;;;;18.70;61.70;;;;;;5094039;28;19908;-63
2022/10/03 14:39:35;;;;;;;;;;;18.70;61.60;;;;;;5092933;28;19908;-63
2022/10/03 14:42:01;;;;;;;;;;;18.70;61.60;;;;;;5091806;28;20002;-63
2022/10/03 14:44:28;;;;;;;;;;;18.70;61.70;;;;;;5094124;28;20397;-63
2022/10/03 14:47:01;;;;;;;;;;;18.70;61.50;;;;;;5092474;28;20228;-63
2022/10/03 14:49:35;;;;;;;;;;;18.80;61.60;;;;;;5092977;28;20008;-64
2022/10/03 14:52:08;;;;;;;;;;;18.80;61.50;;;;;;5092640;28;19960;-64
2022/10/03 14:54:36;;;;;;;;;;;18.80;61.40;;;;;;5092663;28;20320;-64
2022/10/03 14:57:12;;;;;;;;;;;18.90;61.40;;;;;;5092561;28;19912;-64
2022/10/03 14:59:37;;;;;;;;;;;18.90;61.30;;;;;;5092546;28;19912;-63
2022/10/03 15:02:38;;;;;;;;;;;18.80;61.30;;;;;;5093349;28;20304;-63
2022/10/03 15:05:03;;;;;;;;;;;18.80;61.40;;;;;;5050370;28;19915;-63
2022/10/03 15:07:38;;;;;;;;;;;18.80;61.60;;;;;;5093471;28;19908;-64
2022/10/03 15:10:09;;;;;;;;;;;18.70;61.60;;;;;;5092588;28;19912;-64
2022/10/03 15:12:34;;;;;;;;;;;18.80;61.70;;;;;;5092122;28;19930;-64
2022/10/03 15:15:04;;;;;;;;;;;18.80;61.70;;;;;;5092240;28;20439;-64